Flight Track Log - Related Links

Times and Time Zones

All times are in EDT time to prevent confusion due to time zone crossing. See the IBE425 flight status page for this flight to view local times or setup timezone preferences in your user account.

Time Position Orientation Groundspeed Altitude Reporting Facility
EDT Latitude Longitude Course Direction KTS MPH feet Rate Location/Type
Tue 04:06:48 PM 42.8500 -3.3540 213° Southwest 369 425 24,800  Level FlightAware ADS-B
Tue 04:07:28 PM 42.8020 -3.3970 213° Southwest 369 425 24,800 1,148 Level FlightAware ADS-B
Tue 04:08:43 PM 42.6570 -3.4500 195° South 379 436 27,000 1,200 Climbing FlightAware ADS-B
Tue 04:09:18 PM 42.6010 -3.4810 202° Southwest 379 436 27,000  Level FlightAware ADS-B
Tue 04:10:03 PM 42.5250 -3.5230 202° Southwest 379 436 27,000  Level FlightAware ADS-B
Tue 04:10:48 PM 42.4520 -3.5620 202° Southwest 380 437 27,000  Level FlightAware ADS-B
Tue 04:11:28 PM 42.3860 -3.5980 202° Southwest 381 438 27,000  Level FlightAware ADS-B
Tue 04:12:13 PM 42.3130 -3.6380 202° Southwest 381 438 27,000  Level FlightAware ADS-B
Tue 04:12:53 PM 42.2470 -3.6730 201° Southwest 381 438 27,000  Level FlightAware ADS-B
Tue 04:13:33 PM 42.1820 -3.7080 202° Southwest 381 438 27,000  Level FlightAware ADS-B
Tue 04:14:18 PM 42.1110 -3.7460 202° Southwest 379 436 27,000  Level FlightAware ADS-B
Tue 04:14:58 PM 42.0470 -3.7810 202° Southwest 378 435 27,000  Level FlightAware ADS-B
Tue 04:15:43 PM 41.9720 -3.8210 202° Southwest 380 437 27,000  Level FlightAware ADS-B
Tue 04:16:23 PM 41.9020 -3.8590 202° Southwest 416 479 27,000  Level FlightAware ADS-B
Tue 04:17:03 PM 41.8380 -3.8930 202° Southwest 388 447 27,000 -776 Level FlightAware ADS-B
Tue 04:17:48 PM 41.7600 -3.9340 201° Southwest 373 429 25,900 -1,482 Descending FlightAware ADS-B
Tue 04:18:28 PM 41.6990 -3.9670 202° Southwest 380 437 24,900 -1,350 Descending FlightAware ADS-B
Tue 04:19:08 PM 41.6310 -4.0030 202° Southwest 385 443 24,100 -1,200 Descending FlightAware ADS-B
Tue 04:19:53 PM 41.5560 -4.0420 201° Southwest 379 436 23,200 -1,200 Descending FlightAware ADS-B
Tue 04:20:33 PM 41.4930 -4.0750 201° Southwest 360 414 22,400 -1,200 Descending FlightAware ADS-B
Tue 04:21:13 PM 41.4320 -4.1070 201° Southwest 346 398 21,600 -988 Descending FlightAware ADS-B
Tue 04:21:58 PM 41.3700 -4.1400 202° Southwest 316 364 21,000 -424 Descending FlightAware ADS-B
Tue 04:22:38 PM 41.3170 -4.1680 202° Southwest 289 333 21,000 -353 Level FlightAware ADS-B
Tue 04:23:23 PM 41.2600 -4.1920 198° South 306 352 20,500 -706 Descending FlightAware ADS-B
Tue 04:24:03 PM 41.2010 -4.1760 168° South 320 368 20,000 -375 Descending FlightAware ADS-B
Tue 04:24:43 PM 41.1440 -4.1580 167° South 318 366 20,000 -353 Level FlightAware ADS-B
Tue 04:25:28 PM 41.0790 -4.1380 167° South 318 366 19,500 -900 Descending FlightAware ADS-B
Tue 04:26:23 PM 41.0000 -4.1400 181° South 276 318 18,500 -1,029 Descending FlightAware ADS-B
Tue 04:26:38 PM 40.9870 -4.1560 223° Southwest 262 302 18,300 -800 Descending FlightAware ADS-B
Tue 04:26:53 PM 40.9790 -4.1780 244° Southwest 254 292 18,100 -900 Descending FlightAware ADS-B
Tue 04:27:18 PM 40.9780 -4.2150 268° West 247 284 17,700 -900 Descending FlightAware ADS-B
Tue 04:27:33 PM 40.9840 -4.2380 289° West 249 287 17,500 -1,000 Descending FlightAware ADS-B
Tue 04:27:48 PM 40.9920 -4.2550 302° West 251 289 17,200 -800 Descending FlightAware ADS-B
Tue 04:28:03 PM 41.0070 -4.2720 319° Northwest 253 291 17,100 -218 Descending FlightAware ADS-B
Tue 04:28:43 PM 41.0450 -4.3060 326° Northwest 253 291 17,000 -600 Descending FlightAware ADS-B
Tue 04:29:23 PM 41.0840 -4.3400 327° Northwest 253 291 16,300 -1,080 Descending FlightAware ADS-B
Tue 04:29:33 PM 41.0960 -4.3430 349° North 262 302 16,100 -1,000 Descending FlightAware ADS-B
Tue 04:29:53 PM 41.1200 -4.3320 19° North 289 333 15,800 -857 Descending FlightAware ADS-B
Tue 04:30:08 PM 41.1330 -4.3130 48° Northeast 305 351 15,600 -1,000 Descending FlightAware ADS-B
Tue 04:30:23 PM 41.1410 -4.2850 69° East 320 368 15,300 -933 Descending FlightAware ADS-B
Tue 04:30:53 PM 41.1300 -4.2290 105° East 321 369 14,900 -667 Descending FlightAware ADS-B
Tue 04:31:08 PM 41.1140 -4.2110 140° Southeast 313 360 14,800 -480 Descending FlightAware ADS-B
Tue 04:31:18 PM 41.1010 -4.2040 158° South 299 344 14,700 -436 Descending FlightAware ADS-B
Tue 04:32:03 PM 41.0410 -4.1880 169° South 292 336 14,400 -424 Descending FlightAware ADS-B
Tue 04:32:43 PM 40.9870 -4.1750 170° South 290 334 14,100 -545 Descending FlightAware ADS-B
Tue 04:32:58 PM 40.9680 -4.1650 158° South 302 348 13,900 -600 Descending FlightAware ADS-B
Tue 04:33:13 PM 40.9540 -4.1450 133° Southeast 310 357 13,800 -400 Descending FlightAware ADS-B
Tue 04:33:28 PM 40.9470 -4.1200 110° East 311 358 13,700 -436 Descending FlightAware ADS-B
Tue 04:34:08 PM 40.9490 -4.0460 88° East 312 359 13,400 -675 Descending FlightAware ADS-B
Tue 04:34:48 PM 40.9520 -3.9710 87° East 313 360 12,800 -847 Descending FlightAware ADS-B
Tue 04:35:33 PM 40.9540 -3.8840 88° East 309 356 12,200 -758 Descending FlightAware ADS-B
Tue 04:36:23 PM 40.9520 -3.7910 92° East 314 361 11,600 -758 Descending FlightAware ADS-B
Tue 04:37:08 PM 40.9410 -3.7120 100° East 290 334 11,000 -867 Descending FlightAware ADS-B
Tue 04:37:53 PM 40.9110 -3.6350 117° Southeast 285 328 10,300 -1,100 Descending FlightAware ADS-B
Tue 04:38:08 PM 40.9020 -3.6140 120° Southeast 281 323 9,900 -1,650 Descending FlightAware ADS-B
Tue 04:38:33 PM 40.8800 -3.5820 132° Southeast 267 307 9,200 -1,650 Descending FlightAware ADS-B
Tue 04:38:48 PM 40.8640 -3.5770 167° South 253 291 8,800 -1,600 Descending FlightAware ADS-B
Tue 04:39:18 PM 40.8300 -3.5770 180° South 251 289 8,000 -1,457 Descending FlightAware ADS-B
Tue 04:39:58 PM 40.7840 -3.5760 179° South 232 267 7,100 -1,385 Descending FlightAware ADS-B
Tue 04:40:23 PM 40.7560 -3.5760 180° South 229 264 6,500 -1,418 Descending FlightAware ADS-B
Tue 04:40:53 PM 40.7250 -3.5760 180° South 229 264 5,800 -1,200 Descending FlightAware ADS-B
Tue 04:41:23 PM 40.6930 -3.5760 180° South 214 246 5,300 -1,200 Descending FlightAware ADS-B
Tue 04:42:03 PM 40.6550 -3.5760 180° South 200 230 4,400 -1,200 Descending FlightAware ADS-B
Tue 04:42:23 PM 40.6370 -3.5760 180° South 192 221 4,100 -873 Descending FlightAware ADS-B
Tue 04:42:58 PM 40.6080 -3.5750 179° South 179 206 3,600 -900 Descending FlightAware ADS-B
Tue 04:43:23 PM 40.5890 -3.5750 180° South 160 184 3,200 -800 Descending FlightAware ADS-B
Tue 04:43:58 PM 40.5660 -3.5750 180° South 142 163 2,800 -800 Descending FlightAware ADS-B
Tue 04:44:23 PM 40.5480 -3.5750 180° South 133 153 2,400 -720 Descending FlightAware ADS-B
Tue 04:44:48 PM 40.5330 -3.5750 180° South 129 148 2,200 -480 Descending FlightAware ADS-B

Login

Don't have an account? Register now (free) for customized features, flight alerts, and more!